Time;durP1;ratioP1;P1;durP2;ratioP2;P2;SDS_P1;SDS_P2;PMS_P1;PMS_P2;Temp;Humidity;BMP_temperature;BMP_pressure;BME280_temperature;BME280_humidity;BME280_pressure;Samples;Min_cycle;Max_cycle;Signal;HPM_P1;HPM_P2
2022/06/07 00:01:04;;;;;;;4.43;0.70;;;17.90;77.70;;;;;;5039428;28;20478;-73
2022/06/07 00:03:30;;;;;;;2.15;0.40;;;17.90;78.20;;;;;;5035803;28;20030;-72
2022/06/07 00:05:56;;;;;;;1.05;0.57;;;17.90;81.20;;;;;;5036236;28;20025;-72
2022/06/07 00:08:23;;;;;;;4.55;0.90;;;17.90;80.30;;;;;;5034866;28;20046;-72
2022/06/07 00:10:49;;;;;;;1.48;1.05;;;17.80;81.10;;;;;;5034573;28;20037;-73
2022/06/07 00:13:17;;;;;;;1.75;0.80;;;17.80;83.30;;;;;;5035594;28;20363;-73
2022/06/07 00:15:44;;;;;;;0.70;0.50;;;17.70;83.40;;;;;;5034524;28;20391;-73
2022/06/07 00:18:11;;;;;;;2.30;0.80;;;17.70;83.50;;;;;;5035834;28;20033;-74
2022/06/07 00:20:39;;;;;;;2.47;0.65;;;17.70;85.60;;;;;;5040429;28;20036;-72
2022/06/07 00:23:09;;;;;;;1.45;0.40;;;17.60;86.90;;;;;;5045836;28;20363;-72
2022/06/07 00:25:36;;;;;;;1.02;0.40;;;17.60;85.00;;;;;;5035089;28;20029;-73
2022/06/07 00:28:03;;;;;;;2.30;0.40;;;17.60;84.20;;;;;;5035573;28;20034;-73
2022/06/07 00:30:31;;;;;;;1.52;0.50;;;17.60;86.30;;;;;;5041146;28;20367;-72
2022/06/07 00:32:58;;;;;;;5.07;0.82;;;17.60;85.90;;;;;;5051515;28;20179;-72
2022/06/07 00:35:25;;;;;;;3.42;0.95;;;17.60;85.20;;;;;;5049185;28;20048;-73
2022/06/07 00:37:51;;;;;;;1.58;0.63;;;17.60;86.60;;;;;;5035665;28;20045;-72
2022/06/07 00:40:18;;;;;;;1.73;0.88;;;17.60;85.20;;;;;;5035074;28;20045;-73
2022/06/07 00:42:44;;;;;;;2.85;0.75;;;17.50;85.70;;;;;;5034331;28;20041;-72
2022/06/07 00:45:17;;;;;;;2.22;0.60;;;17.60;84.20;;;;;;5035321;28;20052;-72
2022/06/07 00:47:43;;;;;;;1.65;0.55;;;17.60;84.40;;;;;;5035413;28;20034;-73
2022/06/07 00:50:34;;;;;;;1.10;0.50;;;17.60;84.30;;;;;;5034148;28;20033;-73
2022/06/07 00:53:01;;;;;;;2.45;1.00;;;17.60;85.10;;;;;;5035816;28;20181;-73
2022/06/07 00:55:27;;;;;;;3.53;1.00;;;17.50;86.00;;;;;;5034364;28;20379;-73
2022/06/07 00:58:00;;;;;;;2.45;0.80;;;17.60;86.40;;;;;;5034048;28;20414;-72
2022/06/07 01:00:46;;;;;;;2.78;1.02;;;17.60;86.20;;;;;;5034053;28;20044;-73
2022/06/07 01:03:15;;;;;;;1.88;0.73;;;17.50;86.20;;;;;;5049915;28;20044;-76
2022/06/07 01:05:49;;;;;;;1.63;0.90;;;17.60;87.20;;;;;;5050283;28;20038;-73
2022/06/07 01:11:08;;;;;;;2.53;0.70;;;17.40;88.80;;;;;;5033638;28;20060;-73
2022/06/07 01:13:36;;;;;;;4.70;1.00;;;17.40;88.30;;;;;;5060993;28;20059;-74
2022/06/07 01:16:24;;;;;;;2.72;0.88;;;17.40;88.50;;;;;;5034530;28;20038;-72
2022/06/07 01:18:50;;;;;;;2.75;0.88;;;17.40;89.10;;;;;;5034507;28;20026;-72
2022/06/07 01:21:35;;;;;;;2.60;0.82;;;17.40;89.50;;;;;;5034180;28;20049;-72
2022/06/07 01:24:04;;;;;;;2.78;0.70;;;17.30;89.70;;;;;;5041504;28;20050;-72
2022/06/07 01:26:39;;;;;;;2.85;0.60;;;17.30;89.30;;;;;;5032733;28;20050;-72
2022/06/07 01:29:08;;;;;;;1.00;0.60;;;17.30;89.30;;;;;;5017553;28;20042;-74
2022/06/07 01:31:35;;;;;;;0.90;0.50;;;17.30;89.40;;;;;;5049004;28;20042;-72
2022/06/07 01:34:02;;;;;;;1.05;0.57;;;17.30;89.50;;;;;;5033268;28;20037;-72
2022/06/07 01:36:28;;;;;;;0.80;0.50;;;17.30;89.70;;;;;;5034019;28;20044;-72
2022/06/07 01:41:56;;;;;;;1.77;0.80;;;17.30;89.10;;;;;;5037800;28;20041;-72
2022/06/07 01:44:31;;;;;;;2.88;0.57;;;17.30;88.70;;;;;;5032717;28;20048;-72
2022/06/07 01:47:00;;;;;;;1.30;0.75;;;17.30;89.70;;;;;;5033021;28;20049;-72
2022/06/07 01:49:27;;;;;;;1.00;0.50;;;17.30;89.70;;;;;;5033261;28;20046;-72
2022/06/07 01:51:55;;;;;;;1.23;0.50;;;17.30;90.00;;;;;;5016684;28;20041;-72
2022/06/07 01:54:22;;;;;;;0.93;0.43;;;17.30;90.30;;;;;;5040698;28;20388;-72
2022/06/07 01:56:50;;;;;;;1.00;0.50;;;17.30;90.30;;;;;;5032804;28;20049;-72
2022/06/07 01:59:18;;;;;;;1.38;0.50;;;17.20;90.30;;;;;;5044799;28;20402;-72
2022/06/07 02:01:46;;;;;;;0.70;0.60;;;17.20;90.30;;;;;;5051241;28;20045;-72
2022/06/07 02:04:13;;;;;;;1.88;0.60;;;17.20;90.80;;;;;;5038972;28;20037;-72
2022/06/07 02:06:39;;;;;;;2.15;0.60;;;17.20;90.80;;;;;;5046187;28;20037;-72
2022/06/07 02:09:09;;;;;;;2.40;0.65;;;17.20;90.80;;;;;;5048735;28;20486;-72
2022/06/07 02:11:37;;;;;;;2.38;0.60;;;17.10;91.20;;;;;;5031223;28;20125;-72
2022/06/07 02:14:07;;;;;;;2.17;0.90;;;17.20;91.70;;;;;;5033464;28;20052;-72
2022/06/07 02:16:34;;;;;;;2.58;0.63;;;17.10;91.70;;;;;;5044992;28;20033;-72
2022/06/07 02:19:01;;;;;;;4.80;1.00;;;17.00;91.80;;;;;;5033761;28;20049;-72
2022/06/07 02:21:34;;;;;;;2.13;0.70;;;17.10;92.40;;;;;;5031893;28;20042;-72
2022/06/07 02:24:01;;;;;;;7.55;0.85;;;17.00;93.10;;;;;;5034971;28;20057;-72
2022/06/07 02:26:32;;;;;;;2.80;0.50;;;16.90;93.10;;;;;;5031715;28;20383;-72
2022/06/07 02:29:11;;;;;;;3.15;0.60;;;16.80;93.80;;;;;;5033341;28;20033;-72
2022/06/07 02:31:43;;;;;;;1.75;0.77;;;16.80;93.90;;;;;;5051032;28;20048;-72
2022/06/07 02:34:11;;;;;;;1.40;0.80;;;16.70;94.10;;;;;;5036884;28;20041;-72
2022/06/07 02:36:37;;;;;;;2.92;0.80;;;16.70;94.60;;;;;;5031295;28;20045;-71
2022/06/07 02:39:04;;;;;;;2.53;0.70;;;16.70;95.30;;;;;;5047806;28;20082;-72
2022/06/07 02:41:33;;;;;;;1.45;0.70;;;16.60;95.50;;;;;;5032673;28;20029;-73
2022/06/07 02:43:59;;;;;;;2.30;0.77;;;16.50;96.10;;;;;;5033360;28;20064;-72
2022/06/07 02:46:25;;;;;;;3.57;0.70;;;16.50;96.70;;;;;;5032455;28;20029;-72
2022/06/07 02:48:52;;;;;;;1.40;0.70;;;16.50;97.10;;;;;;5032712;28;20040;-71
2022/06/07 02:51:18;;;;;;;1.60;0.98;;;16.50;97.60;;;;;;5049862;28;20398;-72
2022/06/07 02:53:45;;;;;;;2.90;0.50;;;16.40;98.00;;;;;;5031626;28;20044;-72
2022/06/07 02:56:11;;;;;;;1.42;0.73;;;16.40;98.20;;;;;;5032557;28;20064;-72
2022/06/07 02:58:37;;;;;;;2.13;0.82;;;16.40;98.90;;;;;;5043334;28;20278;-72
2022/06/07 03:01:06;;;;;;;2.88;0.70;;;16.30;98.60;;;;;;5031124;28;20048;-72
2022/06/07 03:03:39;;;;;;;2.65;0.68;;;16.40;99.00;;;;;;5042475;28;20379;-72
2022/06/07 03:06:08;;;;;;;1.55;0.63;;;16.30;99.50;;;;;;5031668;28;20074;-72
2022/06/07 03:08:36;;;;;;;2.25;0.80;;;16.30;99.90;;;;;;5033275;28;20077;-73
2022/06/07 03:11:03;;;;;;;1.60;0.80;;;16.30;99.90;;;;;;5034698;28;20061;-72
2022/06/07 03:13:32;;;;;;;2.28;0.88;;;16.30;99.90;;;;;;5035294;28;20483;-73
2022/06/07 03:15:59;;;;;;;4.05;1.05;;;16.30;99.90;;;;;;5038394;28;20048;-72
2022/06/07 03:18:25;;;;;;;2.80;1.10;;;16.30;99.90;;;;;;5033299;28;20041;-72
2022/06/07 03:20:52;;;;;;;2.97;1.33;;;16.20;99.90;;;;;;5031393;28;20037;-72
2022/06/07 03:23:21;;;;;;;1.60;0.98;;;16.20;99.90;;;;;;5030601;28;20044;-74
2022/06/07 03:26:09;;;;;;;3.33;1.23;;;16.20;99.90;;;;;;5047872;28;20048;-72
2022/06/07 03:28:42;;;;;;;2.10;1.27;;;16.20;99.90;;;;;;5030325;28;20409;-71
2022/06/07 03:31:14;;;;;;;1.90;0.90;;;16.20;99.90;;;;;;5030756;28;20052;-71
2022/06/07 03:33:45;;;;;;;4.78;1.00;;;16.20;99.90;;;;;;5031471;28;20042;-71
2022/06/07 03:36:17;;;;;;;2.75;1.30;;;16.20;99.90;;;;;;5031050;28;20042;-72
2022/06/07 03:38:43;;;;;;;2.35;1.20;;;16.20;99.90;;;;;;5047942;28;20033;-72
2022/06/07 03:41:17;;;;;;;3.97;1.60;;;16.20;99.90;;;;;;5047460;28;20034;-72
2022/06/07 03:43:45;;;;;;;2.83;0.88;;;16.20;99.90;;;;;;5030522;28;20041;-72
2022/06/07 03:46:14;;;;;;;3.40;1.23;;;16.20;99.90;;;;;;5032207;28;20034;-71
2022/06/07 03:48:43;;;;;;;1.80;1.17;;;16.20;99.90;;;;;;5039098;28;20049;-72
2022/06/07 03:51:13;;;;;;;2.92;1.15;;;16.10;99.90;;;;;;5041795;28;20045;-72
2022/06/07 03:53:41;;;;;;;2.13;1.10;;;16.10;99.90;;;;;;5030389;28;20045;-72
2022/06/07 03:56:09;;;;;;;3.78;1.40;;;16.10;99.90;;;;;;5049498;28;20037;-72
2022/06/07 03:58:41;;;;;;;4.47;1.30;;;16.20;99.90;;;;;;5038147;28;20053;-72
2022/06/07 04:01:10;;;;;;;4.38;1.10;;;16.10;99.90;;;;;;5031133;28;20041;-74
2022/06/07 04:03:37;;;;;;;1.25;1.08;;;16.10;99.90;;;;;;5031841;28;20037;-72
2022/06/07 04:06:04;;;;;;;3.13;1.33;;;16.20;99.90;;;;;;5048117;28;20051;-72
2022/06/07 04:08:32;;;;;;;2.17;1.10;;;16.10;99.90;;;;;;5029834;28;20510;-72
2022/06/07 04:11:02;;;;;;;1.75;0.95;;;16.10;99.90;;;;;;5032433;28;20045;-72
2022/06/07 04:13:45;;;;;;;2.78;1.10;;;16.10;99.90;;;;;;5050290;28;20045;-72
2022/06/07 04:16:14;;;;;;;3.35;1.85;;;16.00;99.90;;;;;;5036938;28;20034;-72
2022/06/07 04:18:47;;;;;;;3.35;1.15;;;16.10;99.90;;;;;;5031113;28;20045;-72
2022/06/07 04:21:16;;;;;;;2.88;1.33;;;16.10;99.90;;;;;;5030425;28;20387;-72
2022/06/07 04:23:43;;;;;;;4.85;1.20;;;16.00;99.90;;;;;;5031377;28;20479;-73
2022/06/07 04:26:13;;;;;;;2.20;1.52;;;16.20;99.90;;;;;;5047157;28;20033;-73
2022/06/07 04:28:43;;;;;;;2.67;1.05;;;16.90;99.90;;;;;;5030185;28;20046;-72
2022/06/07 04:31:12;;;;;;;3.38;0.80;;;18.50;99.90;;;;;;5031171;28;20418;-72
2022/06/07 04:33:39;;;;;;;1.35;0.68;;;19.50;96.10;;;;;;5047636;28;20041;-73
2022/06/07 04:36:12;;;;;;;2.97;1.35;;;20.30;94.10;;;;;;5021474;28;20056;-72
2022/06/07 04:38:40;;;;;;;2.65;1.13;;;20.10;92.90;;;;;;5046519;28;20041;-71
2022/06/07 04:41:10;;;;;;;2.60;0.90;;;19.40;94.60;;;;;;5039023;28;20045;-74
2022/06/07 04:43:40;;;;;;;1.63;1.00;;;20.40;93.20;;;;;;5031710;28;20056;-73
2022/06/07 04:46:09;;;;;;;2.83;0.82;;;21.50;89.80;;;;;;5044343;28;20072;-73
2022/06/07 04:48:38;;;;;;;3.10;0.80;;;22.00;84.90;;;;;;5041690;28;20057;-73
2022/06/07 04:51:19;;;;;;;3.33;0.85;;;22.70;83.40;;;;;;5052122;28;20052;-73
2022/06/07 04:53:55;;;;;;;3.10;1.17;;;22.70;78.50;;;;;;5035588;28;20041;-72
2022/06/07 04:56:28;;;;;;;2.35;0.85;;;23.40;76.40;;;;;;5041000;28;20498;-73
2022/06/07 04:58:55;;;;;;;2.45;0.95;;;23.30;74.50;;;;;;5035816;28;20033;-73
2022/06/07 05:01:28;;;;;;;2.03;0.95;;;24.00;72.30;;;;;;5033608;28;20041;-74
2022/06/07 05:03:58;;;;;;;3.70;1.10;;;24.40;67.90;;;;;;5034162;28;20052;-74
2022/06/07 05:06:28;;;;;;;3.75;1.35;;;24.00;69.20;;;;;;5034129;28;20387;-73
2022/06/07 05:09:06;;;;;;;;;;;23.00;71.00;;;;;;5034212;28;20045;-73
2022/06/07 05:11:33;;;;;;;1.63;0.75;;;22.10;74.60;;;;;;5037694;28;19924;-72
2022/06/07 05:14:03;;;;;;;4.05;1.35;;;22.40;73.50;;;;;;5044862;28;20045;-76
2022/06/07 05:16:31;;;;;;;2.47;0.95;;;23.50;70.40;;;;;;5033107;28;20395;-73
2022/06/07 05:18:57;;;;;;;2.58;1.33;;;24.60;66.10;;;;;;5033431;28;20506;-73
2022/06/07 05:21:25;;;;;;;3.88;1.30;;;24.10;63.50;;;;;;5050469;28;20045;-74
2022/06/07 05:23:53;;;;;;;2.35;1.35;;;23.90;66.00;;;;;;5052373;28;20037;-73
2022/06/07 05:26:37;;;;;;;5.15;1.08;;;24.50;62.90;;;;;;5049741;28;20037;-75
2022/06/07 05:29:06;;;;;;;3.33;1.25;;;23.30;65.60;;;;;;5042407;28;20037;-73
2022/06/07 05:31:33;;;;;;;2.70;1.05;;;24.10;63.40;;;;;;5036449;28;20482;-73
2022/06/07 05:34:00;;;;;;;1.80;0.73;;;24.80;62.50;;;;;;5049041;28;20046;-73
2022/06/07 05:36:26;;;;;;;3.33;1.45;;;24.90;61.20;;;;;;5033735;28;20056;-73
2022/06/07 05:39:03;;;;;;;3.22;1.33;;;25.10;59.70;;;;;;5033837;28;20053;-72
2022/06/07 05:41:32;;;;;;;3.35;1.20;;;25.30;58.50;;;;;;5032995;28;20394;-73
2022/06/07 05:44:06;;;;;;;2.20;0.70;;;24.70;60.90;;;;;;5033094;28;20045;-73
2022/06/07 05:46:37;;;;;;;1.92;0.90;;;25.90;58.80;;;;;;5032677;28;20368;-73
2022/06/07 05:49:24;;;;;;;4.30;1.38;;;25.50;58.80;;;;;;5049190;28;20046;-73
2022/06/07 05:52:01;;;;;;;3.13;1.38;;;25.30;58.50;;;;;;5033204;28;20394;-72
2022/06/07 05:54:30;;;;;;;1.67;0.80;;;24.60;59.10;;;;;;5036786;28;20029;-72
2022/06/07 05:56:57;;;;;;;1.90;1.10;;;23.90;61.30;;;;;;5036180;28;20048;-72
2022/06/07 05:59:23;;;;;;;1.83;0.70;;;23.20;62.60;;;;;;5032983;28;20398;-72
2022/06/07 06:01:50;;;;;;;3.92;0.95;;;22.60;64.60;;;;;;5033476;28;20041;-73
2022/06/07 06:04:18;;;;;;;3.28;1.20;;;22.70;65.00;;;;;;5049442;28;20053;-72
2022/06/07 06:06:48;;;;;;;;;;;22.40;65.00;;;;;;5034351;28;20478;-72
2022/06/07 06:12:00;;;;;;;2.40;1.00;;;21.60;68.00;;;;;;5034591;28;20481;-71
2022/06/07 06:14:49;;;;;;;2.58;1.10;;;22.40;66.00;;;;;;5042354;28;20056;-71
2022/06/07 06:17:24;;;;;;;5.35;1.55;;;23.10;64.40;;;;;;5033780;28;20056;-71
2022/06/07 06:19:56;;;;;;;4.85;1.10;;;22.60;63.70;;;;;;5032519;28;20048;-71
2022/06/07 06:22:22;;;;;;;5.63;0.77;;;22.10;65.90;;;;;;5031818;28;20064;-71
2022/06/07 06:24:58;;;;;;;2.85;0.77;;;22.30;65.60;;;;;;5032633;28;20045;-71
2022/06/07 06:27:25;;;;;;;2.35;1.00;;;22.30;65.90;;;;;;5031904;28;20376;-72
2022/06/07 06:29:56;;;;;;;3.22;0.70;;;23.50;63.40;;;;;;5046680;28;20055;-71
2022/06/07 06:32:22;;;;;;;1.55;0.50;;;23.60;61.40;;;;;;5048609;28;20041;-72
2022/06/07 06:34:50;;;;;;;2.10;0.60;;;23.20;62.30;;;;;;5057866;28;20429;-71
2022/06/07 06:37:18;;;;;;;3.72;0.88;;;24.00;63.50;;;;;;5044298;28;20052;-72
2022/06/07 06:39:46;;;;;;;1.88;0.50;;;24.40;61.10;;;;;;5031659;28;20399;-72
2022/06/07 06:42:13;;;;;;;2.20;0.80;;;24.70;60.30;;;;;;5031868;28;20050;-72
2022/06/07 06:45:00;;;;;;;2.20;0.70;;;25.00;59.60;;;;;;5031618;28;20033;-71
2022/06/07 06:47:26;;;;;;;3.58;0.60;;;24.80;61.50;;;;;;5046783;28;20041;-72
2022/06/07 06:49:53;;;;;;;1.60;0.70;;;24.60;60.10;;;;;;5050569;28;20111;-71
2022/06/07 06:52:22;;;;;;;2.33;0.60;;;24.60;60.20;;;;;;5041359;28;20044;-71
2022/06/07 06:54:49;;;;;;;1.67;0.60;;;24.10;61.70;;;;;;5045530;28;20494;-71
2022/06/07 06:57:21;;;;;;;2.47;0.75;;;24.10;61.60;;;;;;5034516;28;20079;-71
2022/06/07 06:59:47;;;;;;;2.05;0.73;;;23.70;62.20;;;;;;5048028;28;20045;-72
2022/06/07 07:02:14;;;;;;;2.45;0.95;;;24.70;60.90;;;;;;5055114;28;20064;-71
2022/06/07 07:04:51;;;;;;;3.10;1.33;;;25.00;59.60;;;;;;5031572;28;20048;-71
2022/06/07 07:07:19;;;;;;;2.25;0.88;;;24.20;60.70;;;;;;5030677;28;20037;-71
2022/06/07 07:09:46;;;;;;;1.50;0.77;;;24.60;58.60;;;;;;5030886;28;20389;-73
2022/06/07 07:12:13;;;;;;;3.10;0.77;;;24.10;58.80;;;;;;5032851;28;20064;-71
2022/06/07 07:14:49;;;;;;;6.72;0.52;;;24.10;61.00;;;;;;5038928;28;20048;-71
2022/06/07 07:17:20;;;;;;;4.43;0.50;;;24.90;59.70;;;;;;5030917;28;20045;-72
2022/06/07 07:19:50;;;;;;;1.27;0.40;;;25.50;58.70;;;;;;5047885;28;20478;-71
2022/06/07 07:22:19;;;;;;;4.18;0.80;;;24.90;58.10;;;;;;5030723;28;20064;-73
2022/06/07 07:24:46;;;;;;;8.60;0.80;;;23.60;60.60;;;;;;5039084;28;20514;-71
2022/06/07 07:27:17;;;;;;;2.53;1.00;;;22.90;62.40;;;;;;5030868;28;20037;-71
2022/06/07 07:29:44;;;;;;;2.22;0.63;;;22.50;62.70;;;;;;5030347;28;20056;-71
2022/06/07 07:32:14;;;;;;;;;;;22.40;62.90;;;;;;5040614;28;20422;-73
2022/06/07 07:34:51;;;;;;;3.90;0.80;;;21.80;64.90;;;;;;5032604;28;19909;-71
2022/06/07 07:37:18;;;;;;;3.17;0.90;;;21.90;64.90;;;;;;5031151;28;20034;-74
2022/06/07 07:39:45;;;;;;;1.65;0.80;;;22.00;64.30;;;;;;5034235;28;20041;-73
2022/06/07 07:42:16;;;;;;;2.88;0.80;;;22.90;63.90;;;;;;5040214;28;20052;-73
2022/06/07 07:44:53;;;;;;;6.85;0.80;;;23.60;62.30;;;;;;5031597;28;20045;-73
2022/06/07 07:47:22;;;;;;;2.40;0.68;;;24.70;58.60;;;;;;5036889;28;20108;-73
2022/06/07 07:49:48;;;;;;;3.63;0.70;;;24.50;58.50;;;;;;5046042;28;20049;-73
2022/06/07 07:52:18;;;;;;;1.70;0.60;;;24.80;59.40;;;;;;5032436;28;20045;-73
2022/06/07 07:54:46;;;;;;;2.97;0.60;;;24.90;57.20;;;;;;5042567;28;20037;-72
2022/06/07 07:57:13;;;;;;;2.13;0.70;;;23.80;58.10;;;;;;5030997;28;20045;-73
2022/06/07 07:59:40;;;;;;;2.42;0.70;;;23.60;60.60;;;;;;5030580;28;20050;-73
2022/06/07 08:02:17;;;;;;;3.88;0.90;;;24.50;58.70;;;;;;5031014;28;20045;-73
2022/06/07 08:04:44;;;;;;;3.55;0.65;;;24.80;57.10;;;;;;5030318;28;20263;-73
2022/06/07 08:07:10;;;;;;;1.75;0.73;;;24.10;58.30;;;;;;5030430;28;20113;-73
2022/06/07 08:09:36;;;;;;;2.20;0.57;;;24.60;57.70;;;;;;5031031;28;20030;-73
2022/06/07 08:12:06;;;;;;;2.80;0.70;;;24.90;56.30;;;;;;5031588;28;20056;-73
2022/06/07 08:14:34;;;;;;;3.33;0.43;;;24.70;57.50;;;;;;5031314;28;20034;-73
2022/06/07 08:17:00;;;;;;;2.13;0.60;;;24.10;56.90;;;;;;5032144;28;20398;-72
2022/06/07 08:19:26;;;;;;;2.30;0.52;;;24.20;56.60;;;;;;5034959;28;20501;-73
2022/06/07 08:21:53;;;;;;;1.95;0.50;;;24.20;56.60;;;;;;5035431;28;20034;-73
2022/06/07 08:24:19;;;;;;;1.63;0.40;;;24.60;55.80;;;;;;5035262;28;20038;-73
2022/06/07 08:26:48;;;;;;;3.58;0.50;;;24.90;55.50;;;;;;5034782;28;20033;-73
2022/06/07 08:29:16;;;;;;;1.95;0.50;;;25.20;55.00;;;;;;5035147;28;20048;-72
2022/06/07 08:31:42;;;;;;;1.95;0.50;;;25.10;53.40;;;;;;5034560;28;20036;-73
2022/06/07 08:39:42;;;;;;;2.47;0.93;;;25.30;52.40;;;;;;5042868;28;20470;-73
2022/06/07 08:42:27;;;;;;;0.93;0.50;;;25.20;52.00;;;;;;5042277;28;20033;-72
2022/06/07 08:45:03;;;;;;;2.70;0.57;;;25.00;52.00;;;;;;5036165;28;20048;-71
2022/06/07 08:47:38;;;;;;;2.47;0.60;;;24.10;53.80;;;;;;5041355;28;20056;-71
2022/06/07 08:50:28;;;;;;;2.25;0.40;;;24.10;52.60;;;;;;5034860;28;20045;-73
2022/06/07 08:53:11;;;;;;;;;;;24.80;52.80;;;;;;5035462;28;20382;-72
2022/06/07 08:56:02;;;;;;;0.95;0.40;;;25.40;52.10;;;;;;5047533;28;19916;-72
2022/06/07 08:58:30;;;;;;;1.33;0.47;;;26.00;51.90;;;;;;5042382;28;20493;-72
2022/06/07 09:00:59;;;;;;;2.50;0.60;;;25.50;52.60;;;;;;5044406;28;20037;-72
2022/06/07 09:03:38;;;;;;;3.90;0.70;;;25.20;53.60;;;;;;5034550;28;20033;-72
2022/06/07 09:06:13;;;;;;;2.33;0.77;;;24.50;53.60;;;;;;5034860;28;20030;-71
2022/06/07 09:08:47;;;;;;;1.92;0.47;;;24.30;55.20;;;;;;5033880;28;20052;-72
2022/06/07 09:14:31;;;;;;;0.95;0.38;;;25.00;54.60;;;;;;5034759;28;20072;-73
2022/06/07 09:17:00;;;;;;;1.33;0.52;;;25.70;55.00;;;;;;5047092;28;20500;-71
2022/06/07 09:19:29;;;;;;;3.60;0.73;;;26.10;52.60;;;;;;5034895;28;20029;-75
2022/06/07 09:21:58;;;;;;;1.52;0.40;;;26.00;52.60;;;;;;5034061;28;20033;-71
2022/06/07 09:24:32;;;;;;;2.03;0.50;;;25.80;52.30;;;;;;5045367;28;20039;-73
2022/06/07 09:27:24;;;;;;;2.38;0.55;;;25.80;51.80;;;;;;5034944;28;20038;-74
2022/06/07 09:30:08;;;;;;;1.27;0.50;;;25.10;52.60;;;;;;5044606;28;20038;-73
2022/06/07 09:32:38;;;;;;;2.38;0.75;;;24.40;54.90;;;;;;5033876;28;20033;-73
2022/06/07 09:35:09;;;;;;;1.30;0.52;;;25.00;54.50;;;;;;5034282;28;20033;-72
2022/06/07 09:37:53;;;;;;;3.83;0.85;;;24.60;54.40;;;;;;5046605;28;20029;-72
2022/06/07 09:40:26;;;;;;;2.75;0.73;;;24.40;55.50;;;;;;5039605;28;20026;-73
2022/06/07 09:43:11;;;;;;;4.00;0.70;;;25.30;54.30;;;;;;5049940;28;20059;-74
2022/06/07 09:45:43;;;;;;;1.35;0.52;;;25.50;54.00;;;;;;5033595;28;20447;-72
2022/06/07 09:48:27;;;;;;;0.80;0.40;;;25.30;53.80;;;;;;5033994;28;20045;-72
2022/06/07 09:50:59;;;;;;;2.75;0.57;;;26.10;54.80;;;;;;5033578;28;20037;-73
2022/06/07 09:53:32;;;;;;;1.10;0.47;;;26.20;52.50;;;;;;5033732;28;20040;-73
2022/06/07 09:56:17;;;;;;;1.98;0.70;;;25.50;52.50;;;;;;5033629;28;20029;-73
2022/06/07 09:58:43;;;;;;;1.02;0.85;;;25.00;53.00;;;;;;5043908;28;20418;-72
2022/06/07 10:01:21;;;;;;;4.35;0.47;;;24.50;54.60;;;;;;5033376;28;20053;-73
2022/06/07 10:03:59;;;;;;;1.67;0.47;;;24.60;54.10;;;;;;5033089;28;20042;-72
2022/06/07 10:06:29;;;;;;;2.50;0.60;;;24.80;54.80;;;;;;5043649;28;20378;-72
2022/06/07 10:08:55;;;;;;;1.13;0.40;;;24.90;55.40;;;;;;5041225;28;20034;-72
2022/06/07 10:11:35;;;;;;;1.45;0.60;;;24.40;51.40;;;;;;5041780;28;20025;-73
2022/06/07 10:14:23;;;;;;;1.55;0.50;;;24.10;52.60;;;;;;5047529;28;20056;-74
2022/06/07 10:16:57;;;;;;;0.75;0.68;;;23.60;55.40;;;;;;5033088;28;20056;-72
2022/06/07 10:19:45;;;;;;;1.38;0.50;;;23.90;54.20;;;;;;5040255;28;20056;-72
2022/06/07 10:22:11;;;;;;;2.20;0.50;;;24.50;53.60;;;;;;5032983;28;20029;-72
2022/06/07 10:25:11;;;;;;;1.50;0.60;;;24.90;53.30;;;;;;5031553;28;20060;-73
2022/06/07 10:28:02;;;;;;;1.70;0.88;;;24.60;54.10;;;;;;5032787;28;20033;-72
2022/06/07 10:31:06;;;;;;;1.67;0.85;;;24.80;54.50;;;;;;5032896;28;20485;-73
2022/06/07 10:33:38;;;;;;;2.80;0.57;;;25.00;54.40;;;;;;5032648;28;20025;-73
2022/06/07 10:36:04;;;;;;;1.60;0.50;;;24.60;54.10;;;;;;5033135;28;20048;-72
2022/06/07 10:39:12;;;;;;;1.30;0.50;;;24.40;55.50;;;;;;5032630;28;20041;-72
2022/06/07 10:42:15;;;;;;;2.03;0.70;;;24.30;54.20;;;;;;5030187;28;20041;-72
2022/06/07 10:44:47;;;;;;;3.10;0.60;;;24.30;55.30;;;;;;5032525;28;20038;-72
2022/06/07 10:47:18;;;;;;;1.50;0.50;;;24.10;55.70;;;;;;5032938;28;20046;-72
2022/06/07 10:49:57;;;;;;;1.80;1.08;;;23.90;55.00;;;;;;5032016;28;20475;-73
2022/06/07 10:52:41;;;;;;;1.63;0.50;;;24.30;55.20;;;;;;5032719;28;20386;-72
2022/06/07 10:55:25;;;;;;;2.67;0.40;;;24.80;53.20;;;;;;5040223;28;20033;-73
2022/06/07 10:58:00;;;;;;;1.10;0.68;;;24.50;53.50;;;;;;5039903;28;20504;-72
2022/06/07 11:00:46;;;;;;;2.10;1.10;;;24.50;53.50;;;;;;5038462;28;20060;-72
2022/06/07 11:03:27;;;;;;;1.70;0.75;;;24.80;52.00;;;;;;5042879;28;20466;-72
2022/06/07 11:09:29;;;;;;;2.05;0.50;;;24.70;53.90;;;;;;5032671;28;20037;-72
2022/06/07 11:12:00;;;;;;;1.02;0.40;;;25.20;52.20;;;;;;5032373;28;20049;-73
2022/06/07 11:15:05;;;;;;;0.82;0.43;;;25.30;53.00;;;;;;5047910;28;20407;-73
2022/06/07 11:17:38;;;;;;;0.85;0.65;;;25.10;52.20;;;;;;5033074;28;20109;-71
2022/06/07 11:20:27;;;;;;;3.00;0.52;;;24.90;51.70;;;;;;5034852;28;20045;-73
2022/06/07 11:22:56;;;;;;;0.57;0.30;;;25.00;51.50;;;;;;5047206;28;20032;-73
2022/06/07 11:25:33;;;;;;;0.90;0.40;;;24.60;52.50;;;;;;5036109;28;20040;-73
2022/06/07 11:28:15;;;;;;;1.33;0.40;;;24.50;52.60;;;;;;5030844;28;20033;-73
2022/06/07 11:30:44;;;;;;;1.02;0.40;;;23.70;53.30;;;;;;5032014;28;20403;-73
2022/06/07 11:33:31;;;;;;;1.38;0.32;;;23.70;53.40;;;;;;5037500;28;20052;-72
2022/06/07 11:36:13;;;;;;;1.17;0.50;;;23.50;52.80;;;;;;5046017;28;20036;-73
2022/06/07 11:38:54;;;;;;;1.27;0.40;;;23.20;54.00;;;;;;5033214;28;20498;-73
2022/06/07 11:41:41;;;;;;;2.90;0.90;;;23.30;53.90;;;;;;5051382;28;20033;-72
2022/06/07 11:44:08;;;;;;;1.08;0.60;;;23.30;53.40;;;;;;5036168;28;20033;-73
2022/06/07 11:46:34;;;;;;;3.72;0.40;;;23.50;53.20;;;;;;5044741;28;20048;-73
2022/06/07 11:49:22;;;;;;;0.90;0.50;;;23.60;53.20;;;;;;5037249;28;20402;-72
2022/06/07 11:52:02;;;;;;;1.92;0.60;;;23.80;52.90;;;;;;5046829;28;20375;-73
2022/06/07 11:54:51;;;;;;;1.90;0.45;;;23.60;52.10;;;;;;5036169;28;20032;-73
2022/06/07 11:57:33;;;;;;;0.93;0.40;;;23.30;52.60;;;;;;5036039;28;20037;-73
2022/06/07 12:00:20;;;;;;;1.17;0.57;;;23.50;53.40;;;;;;5047655;28;20044;-73
2022/06/07 12:03:00;;;;;;;1.40;0.45;;;23.90;52.90;;;;;;5038862;28;20479;-73
2022/06/07 12:05:45;;;;;;;;;;;23.80;54.20;;;;;;5036096;28;20080;-73
2022/06/07 12:08:14;;;;;;;0.85;0.40;;;24.10;54.70;;;;;;5035627;28;19909;-73
2022/06/07 12:10:55;;;;;;;0.90;0.60;;;23.90;54.00;;;;;;5033710;28;20045;-73
2022/06/07 12:16:36;;;;;;;1.63;0.50;;;23.70;54.50;;;;;;5040913;28;20037;-73
2022/06/07 12:19:44;;;;;;;0.82;0.40;;;24.00;54.10;;;;;;5034303;28;20049;-74
2022/06/07 12:22:17;;;;;;;0.93;0.40;;;24.40;54.20;;;;;;5035429;28;20398;-73
2022/06/07 12:24:53;;;;;;;1.25;0.50;;;24.60;52.30;;;;;;5042045;28;20062;-73
2022/06/07 12:27:24;;;;;;;1.33;0.43;;;24.30;52.70;;;;;;5035235;28;20036;-73
2022/06/07 12:29:54;;;;;;;0.77;0.50;;;24.20;52.10;;;;;;5034803;28;20068;-73
2022/06/07 12:32:27;;;;;;;1.95;0.68;;;24.30;52.50;;;;;;5048625;28;20060;-73
2022/06/07 12:35:18;;;;;;;2.33;0.50;;;24.50;51.90;;;;;;5035281;28;20041;-73
2022/06/07 12:37:52;;;;;;;1.10;0.50;;;24.40;51.00;;;;;;5037991;28;20033;-73
2022/06/07 12:40:27;;;;;;;1.25;0.45;;;24.40;52.40;;;;;;5053714;28;20051;-72
2022/06/07 12:42:53;;;;;;;0.50;0.35;;;24.40;52.30;;;;;;5034352;28;20038;-72
2022/06/07 12:45:27;;;;;;;1.05;0.50;;;24.30;52.10;;;;;;5034760;28;20512;-73
2022/06/07 12:48:01;;;;;;;1.08;0.50;;;24.10;52.70;;;;;;5034420;28;20359;-72
2022/06/07 12:50:39;;;;;;;3.20;1.05;;;23.80;52.50;;;;;;5034602;28;20040;-71
2022/06/07 12:53:07;;;;;;;1.17;0.40;;;23.90;53.00;;;;;;5035218;28;20029;-71
2022/06/07 12:55:38;;;;;;;2.25;0.52;;;24.00;53.10;;;;;;5034010;28;20030;-71
2022/06/07 12:58:18;;;;;;;1.15;0.50;;;24.00;53.10;;;;;;5017304;28;20041;-71
2022/06/07 13:00:47;;;;;;;4.05;0.60;;;24.00;53.40;;;;;;5034447;28;20042;-71
2022/06/07 13:03:20;;;;;;;3.97;0.70;;;24.00;54.00;;;;;;5049173;28;20040;-70
2022/06/07 13:05:58;;;;;;;1.85;0.52;;;23.90;52.80;;;;;;5033866;28;20041;-71
2022/06/07 13:08:30;;;;;;;0.57;0.40;;;23.70;53.70;;;;;;5054215;28;20029;-71
2022/06/07 13:10:56;;;;;;;1.60;0.70;;;23.80;54.60;;;;;;5037016;28;20061;-72
2022/06/07 13:13:34;;;;;;;0.80;0.32;;;23.70;54.20;;;;;;5035172;28;20064;-72
2022/06/07 13:16:09;;;;;;;2.17;0.60;;;23.90;54.00;;;;;;5034576;28;20045;-72
2022/06/07 13:18:42;;;;;;;0.82;0.57;;;24.20;54.00;;;;;;5033730;28;20033;-72
2022/06/07 13:21:20;;;;;;;1.52;0.50;;;24.60;53.70;;;;;;5034435;28;20035;-71
2022/06/07 13:23:52;;;;;;;1.23;0.40;;;24.70;52.40;;;;;;5034249;28;20033;-72
2022/06/07 13:26:25;;;;;;;1.80;0.60;;;25.30;53.20;;;;;;5034354;28;20037;-71
2022/06/07 13:29:19;;;;;;;2.08;0.45;;;25.40;52.00;;;;;;5032630;28;20481;-71
2022/06/07 13:31:48;;;;;;;1.88;0.50;;;25.30;53.00;;;;;;5045576;28;20044;-71
2022/06/07 13:34:28;;;;;;;1.42;0.40;;;24.90;53.00;;;;;;5034307;28;20029;-73
2022/06/07 13:37:19;;;;;;;1.90;0.43;;;23.80;54.40;;;;;;5041674;28;20052;-72
2022/06/07 13:40:26;;;;;;;1.60;0.63;;;23.70;54.90;;;;;;5035896;28;20470;-72